Time;durP1;ratioP1;P1;durP2;ratioP2;P2;SDS_P1;SDS_P2;PMS_P1;PMS_P2;Temp;Humidity;BMP_temperature;BMP_pressure;BME280_temperature;BME280_humidity;BME280_pressure;Samples;Min_cycle;Max_cycle;Signal;HPM_P1;HPM_P2
2021/04/23 00:01:19;;;;;;;32.03;15.93;;;;;;;3.87;73.32;98432.91;1787665;80;21492;-70
2021/04/23 00:03:52;;;;;;;31.55;15.45;;;;;;;3.88;73.24;98433.20;1753238;80;21135;-71
2021/04/23 00:06:27;;;;;;;33.35;16.10;;;;;;;3.88;72.68;98435.88;1787615;80;21192;-71
2021/04/23 00:08:59;;;;;;;33.73;15.50;;;;;;;3.89;72.50;98434.31;1789454;80;21157;-71
2021/04/23 00:11:41;;;;;;;28.07;14.18;;;;;;;3.84;75.52;98433.34;1799149;79;21122;-71
2021/04/23 00:14:08;;;;;;;31.52;13.20;;;;;;;3.88;73.81;98436.70;1789819;80;21050;-71
2021/04/23 00:16:35;;;;;;;28.77;13.93;;;;;;;3.92;73.14;98432.50;1799075;79;21105;-71
2021/04/23 00:19:05;;;;;;;28.47;11.38;;;;;;;3.92;72.88;98429.01;1789780;80;21256;-71
2021/04/23 00:21:31;;;;;;;;;;;;;;;3.91;72.33;98432.73;1800973;79;21114;-71
2021/04/23 00:23:58;;;;;;;25.55;13.15;;;;;;;3.86;73.91;98425.91;1799035;79;20214;-72
2021/04/23 00:26:24;;;;;;;30.55;14.55;;;;;;;3.79;73.70;98425.17;1789901;79;21117;-71
2021/04/23 00:28:50;;;;;;;32.65;14.73;;;;;;;3.75;73.53;98430.16;1799086;79;21031;-71
2021/04/23 00:31:17;;;;;;;35.20;16.30;;;;;;;3.72;73.82;98426.59;1789821;80;21510;-71
2021/04/23 00:33:43;;;;;;;33.42;15.75;;;;;;;3.67;73.10;98431.80;1799010;79;21149;-71
2021/04/23 00:36:09;;;;;;;38.48;16.30;;;;;;;3.57;74.12;98437.69;1789856;80;21062;-71
2021/04/23 00:38:36;;;;;;;36.55;17.30;;;;;;;3.50;75.29;98438.81;1799048;79;21110;-71
2021/04/23 00:41:06;;;;;;;28.42;13.83;;;;;;;3.44;75.13;98437.05;1789822;80;21122;-71
2021/04/23 00:43:40;;;;;;;29.72;16.62;;;;;;;3.42;73.68;98436.42;1798995;79;21412;-71
2021/04/23 00:46:06;;;;;;;32.13;14.73;;;;;;;3.36;72.98;98433.62;1786204;80;21090;-70
2021/04/23 00:48:39;;;;;;;32.63;15.75;;;;;;;3.32;73.30;98439.63;1799016;79;21118;-70
2021/04/23 00:51:12;;;;;;;34.98;14.23;;;;;;;3.32;73.69;98440.45;1789683;80;21086;-71
2021/04/23 00:53:41;;;;;;;31.55;13.95;;;;;;;3.30;72.63;98441.72;1799089;79;21026;-70
2021/04/23 00:56:11;;;;;;;35.38;17.17;;;;;;;3.17;74.35;98441.35;1790024;80;22071;-71
2021/04/23 00:58:37;;;;;;;39.13;16.90;;;;;;;3.05;75.36;98439.09;1798121;79;21042;-71
2021/04/23 01:01:15;;;;;;;33.02;15.53;;;;;;;3.01;74.23;98444.08;1790041;80;21110;-71
2021/04/23 01:03:41;;;;;;;23.62;12.40;;;;;;;2.97;75.17;98452.76;1788853;80;21067;-70
2021/04/23 01:06:17;;;;;;;26.15;14.87;;;;;;;2.90;73.19;98443.44;1799140;79;21181;-70
2021/04/23 01:08:44;;;;;;;27.67;12.98;;;;;;;2.75;73.44;98447.81;1789896;80;21189;-71
2021/04/23 01:11:11;;;;;;;27.32;14.47;;;;;;;2.66;76.55;98450.46;1799183;79;21475;-71
2021/04/23 01:13:37;;;;;;;34.05;15.48;;;;;;;2.59;77.43;98447.02;1790068;79;21130;-71
2021/04/23 01:16:10;;;;;;;31.12;15.32;;;;;;;2.60;75.95;98454.00;1799275;79;21137;-71
2021/04/23 01:18:36;;;;;;;31.97;15.50;;;;;;;2.60;77.95;98453.19;1789596;80;21078;-72
2021/04/23 01:21:15;;;;;;;29.67;14.23;;;;;;;2.60;77.07;98455.86;1799258;79;21898;-72
2021/04/23 01:23:43;;;;;;;;;;;;;;;2.63;77.69;98456.23;1792491;80;21094;-70
2021/04/23 01:26:10;;;;;;;24.90;11.38;;;;;;;2.62;78.55;98449.77;1814595;79;20216;-71
2021/04/23 01:28:38;;;;;;;23.12;11.43;;;;;;;2.66;77.43;98457.67;1789922;79;21157;-71
2021/04/23 01:31:07;;;;;;;34.40;14.37;;;;;;;2.68;77.17;98463.09;1799215;79;21091;-71
2021/04/23 01:33:35;;;;;;;26.40;14.05;;;;;;;2.69;78.54;98462.58;1790158;80;21196;-71
2021/04/23 01:36:01;;;;;;;29.55;14.18;;;;;;;2.74;78.17;98470.27;1770566;79;21035;-71
2021/04/23 01:38:58;;;;;;;30.43;14.38;;;;;;;2.72;78.39;98462.95;1790031;79;21491;-71
2021/04/23 01:41:42;;;;;;;43.17;18.82;;;;;;;2.82;77.40;98470.52;1799171;79;21154;-71
2021/04/23 01:44:09;;;;;;;37.03;20.10;;;;;;;2.82;77.51;98467.84;1789984;80;21119;-71
2021/04/23 01:46:35;;;;;;;40.95;20.80;;;;;;;2.85;77.30;98466.05;1799269;79;22036;-71
2021/04/23 01:49:06;;;;;;;40.63;19.25;;;;;;;2.88;75.62;98464.78;1789944;79;21046;-71
2021/04/23 01:51:32;;;;;;;40.58;17.10;;;;;;;2.87;77.35;98465.83;1789615;80;21423;-71
2021/04/23 01:53:58;;;;;;;26.70;13.80;;;;;;;2.91;77.57;98465.70;1799132;79;21043;-71
2021/04/23 01:56:24;;;;;;;27.37;12.60;;;;;;;2.97;76.24;98470.98;1789947;80;21094;-71
2021/04/23 01:58:51;;;;;;;29.50;13.60;;;;;;;2.95;78.30;98466.89;1799208;79;21206;-71
2021/04/23 02:01:17;;;;;;;32.95;14.33;;;;;;;3.01;76.73;98470.03;1789887;80;21090;-71
2021/04/23 02:03:44;;;;;;;31.10;13.95;;;;;;;3.05;76.18;98468.54;1799115;79;21102;-71
2021/04/23 02:06:10;;;;;;;27.90;12.58;;;;;;;3.07;76.98;98462.44;1789896;79;21118;-71
2021/04/23 02:08:37;;;;;;;29.10;13.62;;;;;;;3.12;76.30;98465.28;1787105;79;21103;-71
2021/04/23 02:11:11;;;;;;;32.48;16.35;;;;;;;3.18;76.20;98466.27;1779080;80;21208;-71
2021/04/23 02:13:38;;;;;;;29.15;16.95;;;;;;;3.14;78.20;98472.57;1831803;78;21114;-70
2021/04/23 02:16:07;;;;;;;28.17;15.30;;;;;;;3.11;77.80;98469.82;1831929;77;21118;-70
2021/04/23 02:18:33;;;;;;;26.57;13.93;;;;;;;3.10;76.35;98462.02;1792717;80;21137;-70
2021/04/23 02:20:59;;;;;;;29.25;14.30;;;;;;;2.90;77.85;98456.00;1792397;80;21849;-69
2021/04/23 02:23:26;;;;;;;26.50;12.23;;;;;;;2.91;77.76;98470.53;1792460;79;21210;-70
2021/04/23 02:25:52;;;;;;;25.72;13.05;;;;;;;2.91;76.23;98474.55;1792364;80;21054;-69
2021/04/23 02:28:18;;;;;;;22.22;12.50;;;;;;;2.82;75.46;98471.33;1792365;80;21042;-70
2021/04/23 02:30:52;;;;;;;38.20;15.75;;;;;;;2.80;76.44;98470.70;1792513;79;21579;-70
2021/04/23 02:33:20;;;;;;;27.55;12.37;;;;;;;2.81;78.62;98475.54;1792434;80;21039;-71
2021/04/23 02:35:48;;;;;;;20.40;11.33;;;;;;;2.85;78.08;98478.09;1792438;80;21103;-71
2021/04/23 02:38:14;;;;;;;30.08;12.68;;;;;;;2.84;77.12;98483.16;1792420;79;21093;-72
2021/04/23 02:40:40;;;;;;;33.23;14.00;;;;;;;2.76;78.24;98489.59;1792388;79;21141;-72
2021/04/23 02:43:14;;;;;;;29.15;14.98;;;;;;;2.80;77.22;98484.61;1792365;79;21202;-71
2021/04/23 02:45:41;;;;;;;29.77;15.13;;;;;;;2.77;77.55;98479.19;1792516;80;21492;-69
2021/04/23 02:48:08;;;;;;;28.75;13.88;;;;;;;2.74;78.07;98480.16;1763645;80;21265;-70
2021/04/23 02:50:35;;;;;;;25.00;12.55;;;;;;;2.66;78.56;98475.89;1792356;79;21121;-70
2021/04/23 02:53:03;;;;;;;40.15;15.18;;;;;;;2.65;78.88;98479.60;1792394;80;21054;-69
2021/04/23 02:55:29;;;;;;;35.48;17.15;;;;;;;2.61;79.16;98484.25;1792356;80;21083;-69
2021/04/23 02:58:10;;;;;;;31.10;14.55;;;;;;;2.54;79.08;98485.11;1792396;79;21142;-70
2021/04/23 03:00:39;;;;;;;22.58;12.20;;;;;;;2.52;79.37;98489.05;1790824;80;21207;-71
2021/04/23 03:03:05;;;;;;;;;;;;;;;2.47;79.94;98486.19;1794973;79;21090;-71
2021/04/23 03:05:32;;;;;;;28.83;12.45;;;;;;;2.54;80.01;98486.45;1792321;80;20300;-71
2021/04/23 03:07:58;;;;;;;26.30;9.80;;;;;;;2.63;79.09;98480.83;1792420;79;21523;-71
2021/04/23 03:10:27;;;;;;;25.20;10.43;;;;;;;2.68;77.64;98479.16;1796319;79;21082;-71
2021/04/23 03:12:54;;;;;;;22.50;10.32;;;;;;;2.72;78.25;98470.16;1784081;80;21277;-71
2021/04/23 03:15:25;;;;;;;23.32;9.68;;;;;;;2.89;77.58;98477.94;1787679;80;21146;-71
2021/04/23 03:17:54;;;;;;;13.25;7.90;;;;;;;3.06;77.32;98480.36;1783981;80;21126;-70
2021/04/23 03:20:21;;;;;;;17.15;8.40;;;;;;;3.25;76.63;98477.74;1787770;80;21095;-71
2021/04/23 03:22:47;;;;;;;21.95;10.13;;;;;;;3.43;75.91;98480.44;1784115;80;21546;-71
2021/04/23 03:25:13;;;;;;;25.92;10.78;;;;;;;3.56;74.75;98480.27;1787530;80;21150;-71
2021/04/23 03:27:40;;;;;;;34.63;13.08;;;;;;;3.65;73.95;98485.63;1784076;80;21055;-71
2021/04/23 03:30:11;;;;;;;24.25;11.05;;;;;;;3.70;74.22;98493.02;1787583;80;21087;-71
2021/04/23 03:32:37;;;;;;;22.50;12.37;;;;;;;3.74;74.03;98486.67;1782384;80;21507;-71
2021/04/23 03:35:04;;;;;;;30.75;15.20;;;;;;;3.76;73.74;98487.26;1787709;80;21134;-71
2021/04/23 03:37:30;;;;;;;24.98;13.98;;;;;;;3.77;73.67;98488.41;1783984;80;21416;-71
2021/04/23 03:39:56;;;;;;;19.57;11.93;;;;;;;3.78;73.52;98497.27;1787608;80;21102;-71
2021/04/23 03:42:22;;;;;;;31.17;12.98;;;;;;;3.81;73.28;98494.94;1783985;80;21047;-71
2021/04/23 03:44:48;;;;;;;19.15;10.60;;;;;;;3.83;73.16;98495.52;1787546;80;21495;-71
2021/04/23 03:47:14;;;;;;;22.35;9.73;;;;;;;3.87;73.13;98501.28;1784012;80;21107;-71
2021/04/23 03:49:40;;;;;;;19.95;10.25;;;;;;;3.91;72.97;98499.77;1787549;80;21193;-71
2021/04/23 03:52:06;;;;;;;23.92;10.68;;;;;;;3.98;72.94;98507.73;1783941;80;21097;-71
2021/04/23 03:54:32;;;;;;;26.25;11.95;;;;;;;4.01;72.78;98511.30;1787651;80;21535;-71
2021/04/23 03:56:58;;;;;;;31.87;12.93;;;;;;;4.04;72.87;98516.23;1784055;80;21051;-71
2021/04/23 03:59:25;;;;;;;69.00;32.93;;;;;;;4.10;72.84;98509.45;1787616;80;21091;-71
2021/04/23 04:01:51;;;;;;;25.55;12.55;;;;;;;4.16;72.89;98516.57;1783971;80;21200;-71
2021/04/23 04:04:17;;;;;;;19.80;10.53;;;;;;;4.23;72.71;98519.17;1787620;80;21123;-71
2021/04/23 04:06:43;;;;;;;24.63;9.58;;;;;;;4.30;72.29;98521.25;1784070;80;21575;-71
2021/04/23 04:09:09;;;;;;;26.00;10.50;;;;;;;4.33;71.73;98515.95;1779785;80;21036;-71
2021/04/23 04:11:35;;;;;;;50.92;19.75;;;;;;;4.36;71.70;98521.69;1761033;81;21078;-71
2021/04/23 04:14:01;;;;;;;28.60;13.55;;;;;;;4.39;71.46;98525.25;1772721;81;21278;-71
2021/04/23 04:16:27;;;;;;;45.00;21.20;;;;;;;4.43;71.45;98526.95;1760944;81;21148;-71
2021/04/23 04:18:53;;;;;;;20.72;10.65;;;;;;;4.43;70.83;98521.58;1772698;81;21111;-71
2021/04/23 04:21:19;;;;;;;16.50;9.08;;;;;;;4.42;71.10;98523.45;1761065;81;21019;-71
2021/04/23 04:23:46;;;;;;;20.12;9.08;;;;;;;4.46;71.22;98530.53;1760981;81;21043;-71
2021/04/23 04:26:12;;;;;;;30.85;12.30;;;;;;;4.49;70.44;98532.23;1761048;81;21254;-71
2021/04/23 04:28:39;;;;;;;22.32;12.10;;;;;;;4.52;70.16;98531.76;1772611;81;21182;-72
2021/04/23 04:31:05;;;;;;;25.55;11.10;;;;;;;4.52;70.43;98543.02;1761078;81;21098;-71
2021/04/23 04:33:31;;;;;;;15.72;8.35;;;;;;;4.56;70.21;98536.17;1746742;81;21187;-71
2021/04/23 04:35:57;;;;;;;16.60;9.08;;;;;;;4.67;70.46;98543.95;1761293;80;21440;-71
2021/04/23 04:38:23;;;;;;;17.67;7.10;;;;;;;4.75;71.49;98543.11;1772994;80;21194;-71
2021/04/23 04:40:50;;;;;;;23.05;9.30;;;;;;;4.86;71.00;98543.36;1761122;80;21574;-71
2021/04/23 04:43:17;;;;;;;17.92;9.08;;;;;;;4.97;71.05;98543.93;1772927;81;21111;-71
2021/04/23 04:45:43;;;;;;;21.15;9.80;;;;;;;5.10;70.94;98545.05;1761186;80;21120;-71
2021/04/23 04:48:10;;;;;;;26.57;13.48;;;;;;;5.23;70.49;98544.84;1772853;80;21521;-72
2021/04/23 04:50:45;;;;;;;21.87;11.38;;;;;;;5.32;70.21;98545.31;1761155;81;21467;-71
2021/04/23 04:53:11;;;;;;;16.10;10.43;;;;;;;5.35;69.62;98551.56;1771911;81;21107;-71
2021/04/23 04:55:40;;;;;;;19.62;8.70;;;;;;;5.33;69.65;98549.64;1761110;81;21066;-71
2021/04/23 04:58:07;;;;;;;;;;;;;;;5.33;69.43;98549.11;1763789;81;21069;-71
2021/04/23 05:00:33;;;;;;;16.60;8.38;;;;;;;5.32;69.53;98550.69;1772813;81;20282;-71
2021/04/23 05:02:59;;;;;;;25.45;11.65;;;;;;;5.31;69.21;98549.88;1761153;81;21542;-71
2021/04/23 05:05:26;;;;;;;58.90;26.42;;;;;;;5.30;69.09;98550.93;1772714;81;21091;-71
2021/04/23 05:07:53;;;;;;;20.43;9.63;;;;;;;5.31;68.96;98553.91;1761168;81;21157;-71
2021/04/23 05:10:19;;;;;;;22.35;10.00;;;;;;;5.32;68.64;98553.38;1781794;80;21064;-71
2021/04/23 05:12:45;;;;;;;29.65;15.00;;;;;;;5.32;68.57;98559.57;1787775;80;21071;-71
2021/04/23 05:15:12;;;;;;;30.55;15.18;;;;;;;5.37;68.71;98558.86;1784151;80;21278;-71
2021/04/23 05:17:38;;;;;;;24.55;10.45;;;;;;;5.43;68.54;98563.31;1787607;80;21432;-71
2021/04/23 05:20:06;;;;;;;66.60;28.57;;;;;;;5.48;67.80;98566.66;1784074;80;21090;-71
2021/04/23 05:22:35;;;;;;;37.23;20.12;;;;;;;5.45;68.14;98569.79;1787672;80;21149;-71
2021/04/23 05:25:06;;;;;;;;;;;;;;;5.47;68.37;98570.37;1786701;80;21061;-70
2021/04/23 05:27:32;;;;;;;68.75;31.02;;;;;;;5.53;68.55;98568.91;1784101;80;21306;-70
2021/04/23 05:29:59;;;;;;;35.43;17.90;;;;;;;5.59;68.41;98566.64;1787664;80;21134;-70
2021/04/23 05:32:25;;;;;;;22.80;10.48;;;;;;;5.65;68.46;98571.09;1784081;80;21138;-70
2021/04/23 05:34:51;;;;;;;13.68;8.48;;;;;;;5.70;68.43;98574.94;1787765;80;21040;-70
2021/04/23 05:37:17;;;;;;;13.00;5.80;;;;;;;5.79;68.38;98581.06;1784105;80;21072;-70
2021/04/23 05:39:44;;;;;;;17.17;6.92;;;;;;;5.85;67.84;98579.32;1787658;80;22071;-71
2021/04/23 05:42:13;;;;;;;19.45;7.85;;;;;;;5.85;67.50;98580.66;1784013;80;21083;-70
2021/04/23 05:44:41;;;;;;;12.10;6.53;;;;;;;5.83;67.56;98577.40;1787632;80;21524;-70
2021/04/23 05:47:07;;;;;;;13.72;6.15;;;;;;;5.84;67.01;98573.66;1784125;80;21514;-70
2021/04/23 05:49:34;;;;;;;10.85;5.90;;;;;;;5.79;66.81;98587.79;1787777;80;21147;-70
2021/04/23 05:52:01;;;;;;;16.25;7.00;;;;;;;5.75;66.68;98581.26;1784163;80;21249;-70
2021/04/23 05:54:27;;;;;;;16.40;6.75;;;;;;;5.74;66.87;98589.04;1787689;80;21480;-70
2021/04/23 05:56:53;;;;;;;19.85;7.05;;;;;;;5.82;66.93;98585.18;1784123;80;21543;-70
2021/04/23 05:59:19;;;;;;;14.83;6.67;;;;;;;5.93;66.01;98585.72;1787719;80;21028;-70
2021/04/23 06:01:46;;;;;;;19.20;8.23;;;;;;;5.91;66.36;98584.61;1784077;80;21098;-70
2021/04/23 06:04:13;;;;;;;26.70;13.58;;;;;;;5.96;66.54;98591.14;1787696;80;21198;-69
2021/04/23 06:06:39;;;;;;;18.67;8.08;;;;;;;5.97;66.13;98588.73;1784008;80;21058;-70
2021/04/23 06:09:05;;;;;;;22.90;10.25;;;;;;;6.03;65.93;98591.31;1783559;80;21087;-70
2021/04/23 06:11:32;;;;;;;54.70;21.62;;;;;;;6.13;65.69;98589.36;1761099;81;21483;-70
2021/04/23 06:13:58;;;;;;;47.43;21.02;;;;;;;6.22;65.26;98586.59;1772807;80;21178;-70
2021/04/23 06:16:24;;;;;;;22.00;11.53;;;;;;;6.31;65.00;98587.85;1761107;81;21146;-70
2021/04/23 06:18:50;;;;;;;18.98;11.85;;;;;;;6.34;65.38;98594.66;1772668;80;21138;-70
2021/04/23 06:21:17;;;;;;;17.07;8.35;;;;;;;6.31;65.17;98593.23;1761075;81;21108;-70
2021/04/23 06:23:43;;;;;;;20.68;9.88;;;;;;;6.22;64.83;98592.79;1761138;81;21146;-70
2021/04/23 06:26:09;;;;;;;15.88;8.38;;;;;;;6.17;64.72;98590.01;1761014;81;21074;-70
2021/04/23 06:28:35;;;;;;;20.60;9.43;;;;;;;6.12;64.88;98599.31;1761206;81;21144;-71
2021/04/23 06:31:02;;;;;;;17.40;8.05;;;;;;;6.12;65.13;98595.27;1761071;81;21445;-70
2021/04/23 06:33:35;;;;;;;12.85;7.17;;;;;;;6.13;65.04;98594.74;1733432;81;21104;-70
2021/04/23 06:35:56;;;;;;;9.18;6.62;;;;;;;6.13;64.92;98601.47;1760022;81;21047;-71
2021/04/23 06:38:24;;;;;;;13.00;6.90;;;;;;;6.08;64.47;98597.34;1761133;81;21141;-71
2021/04/23 06:40:51;;;;;;;11.93;6.58;;;;;;;6.07;64.92;98599.22;1761163;81;21258;-70
2021/04/23 06:43:17;;;;;;;17.62;7.62;;;;;;;6.07;64.70;98599.22;1761026;81;21074;-70
2021/04/23 06:45:45;;;;;;;15.78;8.13;;;;;;;6.07;65.01;98607.29;1760988;81;21137;-70
2021/04/23 06:48:12;;;;;;;28.52;12.95;;;;;;;6.07;65.01;98601.91;1761063;81;21098;-71
2021/04/23 06:50:38;;;;;;;20.88;9.53;;;;;;;6.09;65.13;98607.86;1772696;81;21104;-71
2021/04/23 06:53:04;;;;;;;12.98;7.60;;;;;;;6.08;64.91;98609.45;1761061;81;21204;-71
2021/04/23 06:55:30;;;;;;;12.93;8.35;;;;;;;6.05;64.82;98608.56;1772589;81;21032;-71
2021/04/23 06:57:57;;;;;;;22.77;14.35;;;;;;;6.03;64.62;98607.45;1761135;81;21511;-71
2021/04/23 07:00:27;;;;;;;16.10;9.40;;;;;;;5.95;64.61;98613.19;1772672;81;21179;-71
2021/04/23 07:02:53;;;;;;;21.02;9.98;;;;;;;5.82;65.12;98611.55;1761083;81;21137;-71
2021/04/23 07:05:19;;;;;;;23.20;12.00;;;;;;;5.89;65.45;98605.49;1772681;80;21387;-71
2021/04/23 07:07:46;;;;;;;18.75;9.63;;;;;;;5.97;65.64;98615.64;1760972;81;21093;-71
2021/04/23 07:10:15;;;;;;;17.52;8.23;;;;;;;6.11;64.87;98613.82;1757837;80;21036;-71
2021/04/23 07:12:41;;;;;;;20.72;9.80;;;;;;;6.03;65.07;98616.05;1765640;81;21044;-70
2021/04/23 07:15:14;;;;;;;13.90;9.35;;;;;;;6.13;64.50;98623.81;1765607;81;21035;-70
2021/04/23 07:17:42;;;;;;;18.07;9.73;;;;;;;6.18;64.31;98627.16;1826186;78;21179;-70
2021/04/23 07:20:10;;;;;;;22.00;11.83;;;;;;;6.21;64.22;98623.45;1826199;78;21091;-70
2021/04/23 07:22:36;;;;;;;18.40;7.97;;;;;;;6.24;64.26;98619.49;1826186;78;21117;-70
2021/04/23 07:25:02;;;;;;;34.35;13.78;;;;;;;6.32;64.00;98624.48;1826187;78;21392;-70
2021/04/23 07:27:34;;;;;;;16.05;8.20;;;;;;;6.47;63.81;98614.03;1826313;78;21066;-71
2021/04/23 07:29:57;;;;;;;16.50;9.98;;;;;;;6.74;62.86;98622.89;1825450;78;21211;-71
2021/04/23 07:32:23;;;;;;;42.23;18.25;;;;;;;6.79;63.09;98614.92;1826272;78;21150;-71
2021/04/23 07:34:49;;;;;;;19.07;11.30;;;;;;;6.92;62.79;98615.14;1826196;78;21031;-71
2021/04/23 07:37:15;;;;;;;120.10;21.05;;;;;;;7.00;62.48;98616.11;1826177;78;21106;-71
2021/04/23 07:39:41;;;;;;;21.75;18.42;;;;;;;7.17;62.37;98617.48;1826223;78;21046;-71
2021/04/23 07:42:07;;;;;;;15.85;6.72;;;;;;;7.26;61.56;98618.72;1826271;78;22019;-71
2021/04/23 07:44:33;;;;;;;14.95;7.67;;;;;;;7.03;60.41;98613.77;1826151;78;21292;-71
2021/04/23 07:46:59;;;;;;;24.12;10.90;;;;;;;7.15;60.28;98619.08;1826259;78;21060;-71
2021/04/23 07:49:25;;;;;;;27.10;18.85;;;;;;;7.27;59.77;98616.34;1826299;78;21531;-71
2021/04/23 07:51:52;;;;;;;34.25;21.02;;;;;;;7.42;59.51;98621.95;1826237;78;21082;-71
2021/04/23 07:54:18;;;;;;;13.88;8.60;;;;;;;7.43;58.12;98626.82;1826178;78;21168;-71
2021/04/23 07:56:44;;;;;;;15.93;7.62;;;;;;;7.29;58.61;98625.80;1826119;78;21122;-71
2021/04/23 07:59:10;;;;;;;14.90;7.45;;;;;;;7.21;59.27;98626.20;1826245;78;21089;-71
2021/04/23 08:01:36;;;;;;;10.65;6.42;;;;;;;7.29;59.25;98626.34;1826154;78;21511;-71
2021/04/23 08:04:03;;;;;;;42.55;10.80;;;;;;;7.61;59.74;98620.67;1826280;78;21133;-71
2021/04/23 08:06:31;;;;;;;12.43;6.78;;;;;;;7.96;59.40;98616.88;1826086;78;21192;-71
2021/04/23 08:08:57;;;;;;;39.98;11.10;;;;;;;7.96;58.95;98625.52;1826130;78;21097;-70
2021/04/23 08:11:25;;;;;;;28.98;9.25;;;;;;;8.00;59.13;98630.15;1828106;77;21071;-70
2021/04/23 08:13:53;;;;;;;89.22;19.70;;;;;;;7.92;57.39;98630.03;1859249;77;21071;-70
2021/04/23 08:16:20;;;;;;;15.43;9.75;;;;;;;7.95;58.35;98628.74;1783936;80;21011;-70
2021/04/23 08:18:51;;;;;;;17.77;10.13;;;;;;;7.77;57.60;98637.89;1787634;80;21193;-71
2021/04/23 08:21:14;;;;;;;146.68;34.15;;;;;;;8.02;57.73;98633.41;1783189;80;21139;-71
2021/04/23 08:23:40;;;;;;;23.52;10.70;;;;;;;8.35;57.47;98633.90;1787556;80;21134;-71
2021/04/23 08:26:07;;;;;;;13.28;9.10;;;;;;;8.78;56.54;98625.50;1783887;80;21142;-70
2021/04/23 08:28:33;;;;;;;16.77;10.18;;;;;;;9.08;55.38;98618.27;1787623;80;21162;-70
2021/04/23 08:30:59;;;;;;;13.58;8.75;;;;;;;9.68;55.32;98618.52;1784009;80;22032;-70
2021/04/23 08:33:25;;;;;;;14.87;9.53;;;;;;;10.19;54.41;98617.51;1787552;80;21157;-70
2021/04/23 08:35:52;;;;;;;16.93;8.45;;;;;;;10.83;53.92;98619.97;1783910;80;21186;-71
2021/04/23 08:38:18;;;;;;;19.48;9.40;;;;;;;10.88;52.34;98619.18;1787549;80;21092;-71
2021/04/23 08:40:45;;;;;;;18.15;9.80;;;;;;;10.69;52.49;98609.37;1784048;80;21075;-71
2021/04/23 08:43:11;;;;;;;21.15;11.73;;;;;;;10.35;52.03;98606.25;1787638;80;21249;-71
2021/04/23 08:45:37;;;;;;;24.15;11.48;;;;;;;10.34;52.32;98610.01;1783841;80;21023;-70
2021/04/23 08:48:05;;;;;;;17.60;10.38;;;;;;;10.80;47.29;98612.92;1787593;80;21139;-70
2021/04/23 08:50:31;;;;;;;21.85;12.10;;;;;;;10.31;50.81;98610.00;1753692;80;21047;-70
2021/04/23 08:52:57;;;;;;;21.97;12.82;;;;;;;9.52;49.13;98612.17;1787562;80;21146;-72
2021/04/23 08:55:25;;;;;;;16.20;10.05;;;;;;;9.61;51.21;98605.75;1783956;80;21467;-71
2021/04/23 08:57:51;;;;;;;15.15;11.18;;;;;;;9.07;52.34;98611.23;1787539;80;21106;-71
2021/04/23 09:00:18;;;;;;;13.15;7.15;;;;;;;8.49;54.61;98626.25;1783954;80;21126;-71
2021/04/23 09:02:44;;;;;;;9.50;6.28;;;;;;;8.27;55.71;98645.63;1787514;80;21083;-70
2021/04/23 09:05:12;;;;;;;16.42;7.30;;;;;;;7.78;57.10;98664.38;1783897;80;21012;-70
2021/04/23 09:07:38;;;;;;;12.45;8.88;;;;;;;7.03;63.99;98678.97;1787645;80;21055;-70
2021/04/23 09:10:11;;;;;;;9.60;6.45;;;;;;;6.30;66.86;98697.11;1783808;80;21237;-70
2021/04/23 09:12:38;;;;;;;15.15;8.23;;;;;;;5.51;69.83;98697.37;1787589;80;21031;-70
2021/04/23 09:15:23;;;;;;;9.10;6.42;;;;;;;5.15;70.67;98690.27;1784005;80;21194;-70
2021/04/23 09:18:09;;;;;;;11.03;6.55;;;;;;;5.02;71.28;98679.16;1787187;80;21075;-71
2021/04/23 09:20:37;;;;;;;11.08;5.08;;;;;;;4.77;72.51;98675.26;1783679;80;21335;-70
2021/04/23 09:23:19;;;;;;;12.55;6.42;;;;;;;5.04;70.57;98666.84;1787715;80;21127;-71
2021/04/23 09:25:53;;;;;;;13.45;6.35;;;;;;;6.14;68.26;98652.36;1784058;80;21162;-70
2021/04/23 09:28:38;;;;;;;9.95;5.90;;;;;;;6.86;66.93;98649.28;1787707;80;21082;-72
2021/04/23 09:31:32;;;;;;;12.35;7.92;;;;;;;8.44;62.63;98645.90;1784048;80;21099;-71
2021/04/23 09:34:06;;;;;;;12.53;7.70;;;;;;;11.31;58.07;98632.83;1758336;80;22177;-70
2021/04/23 09:36:43;;;;;;;10.45;6.17;;;;;;;13.28;54.19;98628.56;1783995;80;21154;-70
2021/04/23 09:39:17;;;;;;;12.43;8.38;;;;;;;11.69;52.58;98627.95;1787095;80;21137;-70
2021/04/23 09:42:07;;;;;;;12.43;7.35;;;;;;;10.62;53.68;98629.13;1783003;80;21141;-70
2021/04/23 09:44:48;;;;;;;11.78;7.50;;;;;;;9.64;56.53;98624.70;1787757;80;21146;-71
2021/04/23 09:47:18;;;;;;;16.42;7.22;;;;;;;8.85;58.40;98627.48;1784114;80;21196;-70
2021/04/23 09:49:57;;;;;;;12.73;8.75;;;;;;;8.57;59.53;98620.95;1756799;80;21437;-70
2021/04/23 09:52:24;;;;;;;15.85;10.28;;;;;;;8.31;59.94;98617.90;1754540;80;21121;-70
2021/04/23 09:54:56;;;;;;;11.43;7.58;;;;;;;8.37;60.20;98618.25;1787767;80;21500;-70
2021/04/23 09:57:30;;;;;;;13.95;9.88;;;;;;;8.37;60.20;98618.25;1784076;80;21023;-70
2021/04/23 09:59:58;;;;;;;19.05;10.35;;;;;;;8.95;59.05;98607.84;1787588;80;21312;-71
2021/04/23 10:02:26;;;;;;;15.80;9.83;;;;;;;8.72;59.79;98629.23;1784247;80;21094;-71
2021/04/23 10:04:53;;;;;;;16.30;9.03;;;;;;;8.50;58.69;98625.72;1787855;80;21383;-72
2021/04/23 10:07:31;;;;;;;16.73;10.85;;;;;;;8.42;58.67;98630.48;1784089;80;21031;-71
2021/04/23 10:10:09;;;;;;;11.88;7.20;;;;;;;8.36;57.83;98646.87;1785694;80;21135;-70
2021/04/23 10:12:50;;;;;;;17.30;7.22;;;;;;;7.91;59.12;98666.72;1761384;80;21213;-71
2021/04/23 10:15:25;;;;;;;16.07;6.50;;;;;;;7.38;61.18;98675.28;1772707;80;21103;-71
2021/04/23 10:17:57;;;;;;;11.10;6.58;;;;;;;7.00;62.23;98655.17;1761082;80;21151;-71
2021/04/23 10:20:34;;;;;;;10.35;5.85;;;;;;;6.78;63.81;98648.31;1772819;81;21195;-70
2021/04/23 10:23:04;;;;;;;8.75;5.35;;;;;;;6.77;64.11;98652.06;1761162;81;21090;-71
2021/04/23 10:25:32;;;;;;;13.90;8.95;;;;;;;7.06;64.29;98645.61;1746904;81;21305;-71
2021/04/23 10:28:01;;;;;;;11.63;8.18;;;;;;;7.21;64.74;98651.81;1761116;81;21090;-71
2021/04/23 10:30:30;;;;;;;7.37;5.30;;;;;;;7.62;64.92;98651.98;1772835;81;21166;-71
2021/04/23 10:33:00;;;;;;;10.18;5.75;;;;;;;7.86;66.72;98646.39;1760841;81;21098;-71
2021/04/23 10:35:27;;;;;;;13.50;7.95;;;;;;;8.30;64.65;98644.63;1772777;80;21206;-71
2021/04/23 10:37:59;;;;;;;17.15;8.10;;;;;;;8.26;64.30;98638.60;1761204;81;21470;-71
2021/04/23 10:40:25;;;;;;;14.80;7.20;;;;;;;8.50;63.95;98647.33;1772780;80;21111;-71
2021/04/23 10:42:57;;;;;;;25.12;11.05;;;;;;;8.72;63.85;98635.45;1761051;80;21181;-72
2021/04/23 10:45:41;;;;;;;24.52;13.65;;;;;;;8.76;63.05;98635.22;1747021;81;21136;-70
2021/04/23 10:48:20;;;;;;;28.70;13.80;;;;;;;8.66;63.31;98634.30;1761203;81;21066;-70
2021/04/23 10:50:59;;;;;;;23.90;11.03;;;;;;;8.27;64.75;98649.15;1772884;80;21259;-70
2021/04/23 10:53:43;;;;;;;14.90;7.08;;;;;;;8.27;63.94;98656.44;1761147;81;21084;-71
2021/04/23 10:56:28;;;;;;;13.43;7.08;;;;;;;7.56;65.69;98669.66;1736087;81;21090;-71
2021/04/23 10:59:00;;;;;;;11.12;6.55;;;;;;;7.32;65.65;98675.19;1761177;81;21491;-70
2021/04/23 11:01:33;;;;;;;12.68;7.00;;;;;;;7.04;66.29;98662.55;1761171;81;21070;-70
2021/04/23 11:04:12;;;;;;;18.10;10.95;;;;;;;6.89;66.05;98654.17;1761194;81;21197;-70
2021/04/23 11:06:45;;;;;;;13.58;7.50;;;;;;;6.93;66.43;98647.80;1771510;81;21406;-71
2021/04/23 11:09:23;;;;;;;14.58;9.50;;;;;;;6.72;68.44;98642.52;1761109;81;21053;-70
2021/04/23 11:12:11;;;;;;;10.00;6.42;;;;;;;7.12;67.30;98640.32;1772791;81;21091;-71
2021/04/23 11:14:39;;;;;;;7.97;5.20;;;;;;;7.43;68.13;98644.34;1761290;81;21097;-70
2021/04/23 11:17:22;;;;;;;11.15;6.47;;;;;;;7.43;65.98;98643.81;1772663;81;21325;-70
2021/04/23 11:19:52;;;;;;;11.08;8.10;;;;;;;7.52;66.57;98636.14;1761051;81;21085;-71
2021/04/23 11:22:20;;;;;;;11.55;7.95;;;;;;;7.73;66.34;98634.06;1772704;80;21426;-70
2021/04/23 11:25:14;;;;;;;10.18;7.78;;;;;;;7.94;65.01;98627.08;1761220;81;26479;-70
2021/04/23 11:31:04;;;;;;;13.65;8.60;;;;;;;7.71;66.42;98628.64;1845936;76;22564;-70
2021/04/23 11:33:54;;;;;;;12.03;8.25;;;;;;;7.94;65.50;98623.03;1785956;80;21190;-70
2021/04/23 11:36:30;;;;;;;18.40;9.65;;;;;;;8.28;64.22;98617.03;1785889;79;21091;-69
2021/04/23 11:39:04;;;;;;;21.12;11.12;;;;;;;8.41;64.14;98614.53;1785810;80;20920;-70
2021/04/23 11:41:30;;;;;;;12.55;6.03;;;;;;;8.81;64.29;98614.21;1785877;79;21127;-71